This is the latest recevied weather packets stored in our database for station/object OE-11121. If no packets are shown the sender has not sent any weather packets the latest 10 day(s).
| Time | Temp. | Humidity | Pressure | Rain* | Wind** | Luminosity | Snow |
|---|---|---|---|---|---|---|---|
| 1787912733 | 29.44° C | 45% | 1008.7 hPa | 0 mm | - | 577 W/m² | - |
| 1787911906 | 30.56° C | 36% | 1008.3 hPa | 0 mm | - | 517 W/m² | - |
| 1787911533 | 31.11° C | 34% | 1008.2 hPa | 0 mm | - | 769 W/m² | - |
| 1787910932 | 31.11° C | 37% | 1008 hPa | 0 mm | - | 805 W/m² | - |
| 1787910106 | 28.89° C | 46% | 1008.2 hPa | 0 mm | - | 733 W/m² | - |
| 1787909733 | 27.78° C | 50% | 1008.7 hPa | 0 mm | - | 673 W/m² | - |
| 1787909133 | 27.22° C | 53% | 1008.9 hPa | 0 mm | - | 661 W/m² | - |
| 1787908305 | 27.22° C | 52% | 1009.4 hPa | 0 mm | - | 673 W/m² | - |
| 1787907933 | 27.22° C | 53% | 1009.3 hPa | 0 mm | - | 637 W/m² | - |
| 1787907333 | 28.33° C | 44% | 1009.3 hPa | 0 mm | - | 589 W/m² | - |
| 1787906505 | 25.56° C | 59% | 1010.2 hPa | 0 mm | - | 577 W/m² | - |
| 1787905529 | 23.89° C | 63% | 1010.8 hPa | 0 mm | - | 565 W/m² | - |
| 1787904706 | 22.22° C | 69% | 1012.1 hPa | 0 mm | - | 300 W/m² | - |
| 1787904333 | 21.11° C | 71% | 1012.3 hPa | 0 mm | - | 204 W/m² | - |
| 1787903733 | 20.56° C | 72% | 1012.8 hPa | 0 mm | - | 96 W/m² | - |
| 1787902905 | 20.56° C | 72% | 1013.3 hPa | 0 mm | - | 72 W/m² | - |
| 1787902533 | 21.11° C | 70% | 1013.1 hPa | 0 mm | - | 84 W/m² | - |
| 1787901933 | 21.67° C | 69% | 1012.9 hPa | 0 mm | - | 240 W/m² | - |
| 1787901105 | 21.67° C | 69% | 1012.6 hPa | 0 mm | - | 373 W/m² | - |
| 1787900732 | 21.11° C | 71% | 1012.5 hPa | 0 mm | - | 349 W/m² | - |
| 1787900133 | 20.56° C | 72% | 1013.1 hPa | 0 mm | - | 276 W/m² | - |
| 1787899306 | 20.56° C | 71% | 1012.9 hPa | 0 mm | - | 216 W/m² | - |
| 1787898933 | 19.44° C | 75% | 1013 hPa | 0 mm | - | 96 W/m² | - |
| 1787898333 | 19.44° C | 75% | 1012.9 hPa | 0 mm | - | 72 W/m² | - |
| 1787897505 | 18.89° C | 79% | 1013 hPa | 0 mm | - | 60 W/m² | - |
* Rain latest hour (hover to see other rain measurements)
** Current wind speed in m/s (hover to see current wind gust speed)